Terminal Aerodrome Forecast
Issued by NWS

Home | Current Version | Previous Version | Text Only | Print | Product List | Glossary On
Versions: 1 2 3 4 5 6 7 8 9 10 11 12 13 14 15 16 17 18 19 20 21
000
FTUS44 KLZK 211720
TAFLIT
TAF
KLIT 211720Z 2118/2218 17004KT P6SM BKN250
     FM212100 17008KT P6SM VCTS BKN060CB OVC100
     FM220400 20004KT 5SM TSRA BR BKN025CB PROB30 2204/2210 3SM TSRA
      BR BKN010CB
     FM221000 23004KT 4SM -RA BR BKN010
      TEMPO 2210/2214 2SM TSRA BR BKN005 OVC010CB
     FM221400 27010KT P6SM VCTS OVC030CB=

USA.gov is the U.S. government's official web portal to all federal, state and local government web resources and services.